createdAt,value
2023-04-29T00:02:00.175Z,99749.66
2023-04-29T00:04:28.092Z,99749.69
2023-04-29T00:06:55.835Z,99749.13
2023-04-29T00:09:23.329Z,99750.38
2023-04-29T00:11:51.738Z,99757.06
2023-04-29T00:14:19.342Z,99764.63
2023-04-29T00:16:47.085Z,99759.28
2023-04-29T00:19:15.113Z,99758.97
2023-04-29T00:21:42.679Z,99759.34
2023-04-29T00:24:10.128Z,99764.09
2023-04-29T00:26:37.665Z,99757.13
2023-04-29T00:29:05.138Z,99753.59
2023-04-29T00:31:33.107Z,99754.88
2023-04-29T00:34:00.746Z,99755.81
2023-04-29T00:36:28.488Z,99759.97
2023-04-29T00:38:56.157Z,99760.56
2023-04-29T00:41:24.750Z,99760.56
2023-04-29T00:43:52.846Z,99759.28
2023-04-29T00:46:20.345Z,99759.44
2023-04-29T00:48:47.946Z,99755.94
2023-04-29T00:51:15.929Z,99761.72
2023-04-29T00:53:44.037Z,99759.03
2023-04-29T00:56:11.837Z,99760.50
2023-04-29T00:58:39.711Z,99771.84
2023-04-29T01:01:07.418Z,99761.78
2023-04-29T01:03:35.419Z,99758.53
2023-04-29T01:06:44.004Z,99746.22
2023-04-29T01:09:14.416Z,99749.69
2023-04-29T01:12:01.893Z,99747.91
2023-04-29T01:14:30.058Z,99741.91
2023-04-29T01:17:07.145Z,99745.66
2023-04-29T01:19:51.918Z,99739.63
2023-04-29T01:22:22.001Z,99738.00
2023-04-29T01:24:50.354Z,99733.75
2023-04-29T01:28:14.290Z,99733.06
2023-04-29T01:31:07.685Z,99733.84
2023-04-29T01:34:08.263Z,99731.81
2023-04-29T01:37:07.586Z,99729.34
2023-04-29T01:39:46.716Z,99721.47
2023-04-29T01:42:49.276Z,99718.75
2023-04-29T01:45:21.668Z,99721.22
2023-04-29T01:47:53.271Z,99717.00
2023-04-29T01:50:23.555Z,99726.00
2023-04-29T01:52:51.119Z,99720.28
2023-04-29T01:55:18.771Z,99711.09
2023-04-29T01:57:57.209Z,99721.53
2023-04-29T02:00:45.081Z,99726.03
2023-04-29T02:03:12.939Z,99721.81
2023-04-29T02:05:43.903Z,99726.88
2023-04-29T02:08:11.390Z,99720.63
2023-04-29T02:10:42.817Z,99729.44
2023-04-29T02:13:20.987Z,99720.59
2023-04-29T02:15:48.749Z,99725.53
2023-04-29T02:18:17.286Z,99718.94
2023-04-29T02:20:45.305Z,99726.38
2023-04-29T02:23:12.724Z,99722.31
2023-04-29T02:25:40.194Z,99727.56
2023-04-29T02:28:07.686Z,99723.31
2023-04-29T02:30:35.231Z,99724.31
2023-04-29T02:33:02.885Z,99729.00
2023-04-29T02:35:30.390Z,99731.69
2023-04-29T02:37:57.896Z,99726.75
2023-04-29T02:40:26.651Z,99729.91
2023-04-29T02:42:54.139Z,99725.31
2023-04-29T02:45:22.585Z,99725.16
2023-04-29T02:47:50.069Z,99724.03
2023-04-29T02:50:17.848Z,99726.84
2023-04-29T02:52:46.054Z,99720.19
2023-04-29T02:55:13.698Z,99729.09
2023-04-29T02:57:41.365Z,99729.59
2023-04-29T03:00:10.143Z,99727.97
2023-04-29T03:02:37.949Z,99723.25
2023-04-29T03:05:06.969Z,99730.50
2023-04-29T03:07:34.603Z,99740.56
2023-04-29T03:10:02.124Z,99736.97
2023-04-29T03:12:32.591Z,99729.16
2023-04-29T03:15:02.344Z,99723.78
2023-04-29T03:17:30.078Z,99729.28
2023-04-29T03:19:57.576Z,99737.63
2023-04-29T03:22:25.106Z,99743.97
2023-04-29T03:24:52.875Z,99743.47
2023-04-29T03:27:21.347Z,99733.19
2023-04-29T03:29:49.562Z,99741.25
2023-04-29T03:32:17.384Z,99738.09
2023-04-29T03:34:45.864Z,99745.50
2023-04-29T03:37:33.765Z,99752.06
2023-04-29T03:40:15.242Z,99752.78
2023-04-29T03:42:43.210Z,99761.84
2023-04-29T03:45:14.371Z,99759.78
2023-04-29T03:47:42.601Z,99769.09
2023-04-29T03:50:11.988Z,99760.53
2023-04-29T03:52:40.669Z,99773.44
2023-04-29T03:55:12.811Z,99775.47
2023-04-29T03:57:42.653Z,99771.25
2023-04-29T04:00:12.046Z,99767.50
2023-04-29T04:02:48.543Z,99763.16
2023-04-29T04:05:16.646Z,99775.81
2023-04-29T04:07:49.708Z,99774.09
2023-04-29T04:10:47.297Z,99774.31
2023-04-29T04:13:35.321Z,99774.88
2023-04-29T04:16:03.695Z,99786.59
2023-04-29T04:18:31.915Z,99775.59
2023-04-29T04:21:05.058Z,99775.31
2023-04-29T04:23:41.764Z,99781.81
2023-04-29T04:26:11.675Z,99772.63
2023-04-29T04:28:57.833Z,99772.09
2023-04-29T04:31:41.352Z,99763.47
2023-04-29T04:34:09.686Z,99774.84
2023-04-29T04:36:37.465Z,99767.75
2023-04-29T04:39:05.714Z,99765.47
2023-04-29T04:41:33.499Z,99766.13
2023-04-29T04:44:02.230Z,99774.53
2023-04-29T04:46:43.369Z,99781.25
2023-04-29T04:49:29.549Z,99769.44
2023-04-29T04:51:57.133Z,99775.41
2023-04-29T04:54:25.191Z,99770.28
2023-04-29T04:57:06.036Z,99773.94
2023-04-29T04:59:36.566Z,99783.56
2023-04-29T05:02:04.161Z,99791.38
2023-04-29T05:04:32.107Z,99798.88
2023-04-29T05:06:59.668Z,99801.13
2023-04-29T05:09:32.819Z,99795.13
2023-04-29T05:12:01.394Z,99795.03
2023-04-29T05:14:31.844Z,99788.09
2023-04-29T05:17:01.110Z,99799.09
2023-04-29T05:19:29.097Z,99801.28
2023-04-29T05:21:56.908Z,99798.72
2023-04-29T05:24:24.447Z,99796.47
2023-04-29T05:26:52.520Z,99794.34
2023-04-29T05:29:20.215Z,99795.69
2023-04-29T05:31:56.023Z,99798.31
2023-04-29T05:34:24.508Z,99804.53
2023-04-29T05:36:53.015Z,99803.56
2023-04-29T05:39:23.978Z,99808.09
2023-04-29T05:42:03.346Z,99797.53
2023-04-29T05:44:44.716Z,99792.47
2023-04-29T05:47:12.212Z,99790.16
2023-04-29T05:49:43.236Z,99788.09
2023-04-29T05:52:10.806Z,99786.88
2023-04-29T05:54:44.440Z,99776.19
2023-04-29T05:57:12.779Z,99777.88
2023-04-29T05:59:41.710Z,99774.72
2023-04-29T06:02:11.003Z,99768.09
2023-04-29T06:04:41.909Z,99772.44
2023-04-29T06:07:28.756Z,99777.09
2023-04-29T06:10:11.426Z,99770.41
2023-04-29T06:12:42.200Z,99765.94
2023-04-29T06:15:10.225Z,99764.03
2023-04-29T06:17:37.975Z,99762.81
2023-04-29T06:20:06.596Z,99766.66
2023-04-29T06:22:34.089Z,99757.19
2023-04-29T06:25:01.591Z,99762.97
2023-04-29T06:27:56.972Z,99756.78
2023-04-29T06:30:27.980Z,99760.38
2023-04-29T06:32:55.889Z,99764.81
2023-04-29T06:35:23.385Z,99759.59
2023-04-29T06:38:02.347Z,99757.56
2023-04-29T06:40:29.953Z,99757.28
2023-04-29T06:43:23.626Z,99754.78
2023-04-29T06:46:13.227Z,99761.28
2023-04-29T06:49:01.649Z,99754.31
2023-04-29T06:51:29.470Z,99746.75
2023-04-29T06:53:58.923Z,99752.16
2023-04-29T06:56:26.437Z,99743.72
2023-04-29T06:58:53.932Z,99755.13
2023-04-29T07:01:22.740Z,99740.59
2023-04-29T07:03:51.933Z,99744.38
2023-04-29T07:06:20.055Z,99739.19
2023-04-29T07:08:47.917Z,99740.81
2023-04-29T07:11:17.560Z,99736.75
2023-04-29T07:13:47.976Z,99740.06
2023-04-29T07:16:20.956Z,99735.25
2023-04-29T07:18:49.579Z,99731.88
2023-04-29T07:21:17.772Z,99734.22
2023-04-29T07:23:45.218Z,99730.63
2023-04-29T07:26:17.598Z,99731.66
2023-04-29T07:28:46.744Z,99737.84
2023-04-29T07:31:14.548Z,99741.97
2023-04-29T07:33:43.216Z,99734.81
2023-04-29T07:36:13.033Z,99739.00
2023-04-29T07:38:41.944Z,99731.88
2023-04-29T07:41:09.392Z,99734.97
2023-04-29T07:43:37.010Z,99727.59
2023-04-29T07:46:06.149Z,99726.97
2023-04-29T07:48:39.399Z,99720.56
2023-04-29T07:51:08.821Z,99724.59
2023-04-29T07:53:36.384Z,99723.59
2023-04-29T07:56:08.676Z,99723.06
2023-04-29T07:58:36.503Z,99711.25
2023-04-29T08:01:12.232Z,99716.44
2023-04-29T08:03:42.097Z,99705.97
2023-04-29T08:06:11.431Z,99706.59
2023-04-29T08:08:38.999Z,99714.44
2023-04-29T08:11:06.866Z,99711.16
2023-04-29T08:13:37.293Z,99704.38
2023-04-29T08:16:05.011Z,99717.50
2023-04-29T08:18:32.489Z,99703.88
2023-04-29T08:21:01.065Z,99704.06
2023-04-29T08:23:28.626Z,99694.00
2023-04-29T08:25:56.327Z,99696.66
2023-04-29T08:28:23.836Z,99685.53
2023-04-29T08:30:51.549Z,99689.47
2023-04-29T08:33:19.064Z,99683.56
2023-04-29T08:35:46.502Z,99680.69
2023-04-29T08:38:14.073Z,99675.94
2023-04-29T08:40:46.616Z,99679.38
2023-04-29T08:43:17.874Z,99678.28
2023-04-29T08:45:49.345Z,99679.94
2023-04-29T08:48:18.753Z,99673.69
2023-04-29T08:50:47.026Z,99679.50
2023-04-29T08:53:15.891Z,99673.53
2023-04-29T08:55:48.012Z,99663.22
2023-04-29T08:58:17.245Z,99665.19
2023-04-29T09:00:48.287Z,99667.97
2023-04-29T09:03:25.007Z,99661.81
2023-04-29T09:05:57.481Z,99665.09
2023-04-29T09:08:25.903Z,99657.94
2023-04-29T09:10:54.057Z,99659.94
2023-04-29T09:13:32.883Z,99650.00
2023-04-29T09:16:00.719Z,99651.97
2023-04-29T09:18:48.758Z,99643.94
2023-04-29T09:21:24.994Z,99648.53
2023-04-29T09:23:58.663Z,99637.66
2023-04-29T09:26:27.109Z,99633.75
2023-04-29T09:29:14.060Z,99621.47
2023-04-29T09:31:42.555Z,99626.97
2023-04-29T09:34:11.959Z,99624.00
2023-04-29T09:36:55.087Z,99621.16
2023-04-29T09:39:24.060Z,99614.19
2023-04-29T09:41:54.251Z,99614.25
2023-04-29T09:44:24.690Z,99601.63
2023-04-29T09:47:04.291Z,99591.56
2023-04-29T09:49:40.084Z,99592.09
2023-04-29T09:52:15.061Z,99581.59
2023-04-29T09:54:44.532Z,99580.16
2023-04-29T09:57:16.507Z,99573.00
2023-04-29T09:59:44.049Z,99574.78
2023-04-29T10:02:19.325Z,99570.25
2023-04-29T10:04:58.986Z,99577.19
2023-04-29T10:07:28.605Z,99566.38
2023-04-29T10:09:57.717Z,99569.31
2023-04-29T10:12:26.640Z,99562.81
2023-04-29T10:15:21.466Z,99561.81
2023-04-29T10:18:22.953Z,99557.78
2023-04-29T10:20:52.059Z,99548.50
2023-04-29T10:23:22.102Z,99549.22
2023-04-29T10:25:53.759Z,99547.34
2023-04-29T10:28:24.219Z,99543.44
2023-04-29T10:30:52.579Z,99545.56
2023-04-29T10:33:20.368Z,99541.44
2023-04-29T10:35:49.949Z,99537.72
2023-04-29T10:38:53.234Z,99546.47
2023-04-29T10:41:25.728Z,99540.50
2023-04-29T10:43:56.708Z,99531.72
2023-04-29T10:46:27.024Z,99531.78
2023-04-29T10:49:06.474Z,99536.84
2023-04-29T10:51:43.928Z,99525.56
2023-04-29T10:54:15.062Z,99520.59
2023-04-29T10:56:52.675Z,99512.50
2023-04-29T10:59:42.902Z,99508.38
2023-04-29T11:02:12.969Z,99505.69
2023-04-29T11:05:12.699Z,99515.59
2023-04-29T11:07:41.069Z,99498.09
2023-04-29T11:10:09.067Z,99503.34
2023-04-29T11:12:36.629Z,99495.47
2023-04-29T11:15:05.586Z,99490.53
2023-04-29T11:17:40.649Z,99486.38
2023-04-29T11:20:14.565Z,99484.06
2023-04-29T11:22:43.316Z,99483.28
2023-04-29T11:25:11.742Z,99484.44
2023-04-29T11:27:43.030Z,99481.78
2023-04-29T11:30:10.881Z,99472.66
2023-04-29T11:32:40.975Z,99472.63
2023-04-29T11:35:17.773Z,99473.75
2023-04-29T11:37:47.533Z,99454.69
2023-04-29T11:40:16.929Z,99465.31
2023-04-29T11:42:49.871Z,99460.75
2023-04-29T11:45:19.634Z,99456.09
2023-04-29T11:47:48.942Z,99460.50
2023-04-29T11:50:20.011Z,99441.53
2023-04-29T11:52:49.433Z,99448.81
2023-04-29T11:55:17.129Z,99438.50
2023-04-29T11:57:44.709Z,99438.41
2023-04-29T12:00:14.452Z,99435.25
2023-04-29T12:02:46.828Z,99430.06
2023-04-29T12:05:15.852Z,99422.75
2023-04-29T12:07:44.241Z,99418.75
2023-04-29T12:10:12.748Z,99413.06
2023-04-29T12:12:43.613Z,99406.09
2023-04-29T12:15:12.730Z,99400.06
2023-04-29T12:17:41.193Z,99394.50
2023-04-29T12:20:10.560Z,99396.91
2023-04-29T12:22:38.532Z,99395.78
2023-04-29T12:25:08.126Z,99390.81
2023-04-29T12:27:39.501Z,99386.69
2023-04-29T12:30:11.388Z,99386.47
2023-04-29T12:32:39.435Z,99377.56
2023-04-29T12:35:17.399Z,99384.63
2023-04-29T12:37:49.824Z,99377.13
2023-04-29T12:40:20.259Z,99381.69
2023-04-29T12:42:48.098Z,99378.84
2023-04-29T12:45:33.317Z,99374.84
2023-04-29T12:48:03.168Z,99371.00
2023-04-29T12:50:37.850Z,99370.81
2023-04-29T12:53:08.465Z,99364.09
2023-04-29T12:55:38.749Z,99363.22
2023-04-29T12:58:07.539Z,99359.22
2023-04-29T13:00:37.372Z,99358.94
2023-04-29T13:03:05.324Z,99348.56
2023-04-29T13:05:36.141Z,99353.19
2023-04-29T13:08:07.086Z,99348.31
2023-04-29T13:10:36.111Z,99348.50
2023-04-29T13:13:04.121Z,99335.22
2023-04-29T13:15:33.181Z,99341.56
2023-04-29T13:18:01.459Z,99341.13
2023-04-29T13:20:29.301Z,99324.88
2023-04-29T13:22:56.734Z,99328.31
2023-04-29T13:25:24.216Z,99317.22
2023-04-29T13:27:52.633Z,99318.69
2023-04-29T13:30:20.124Z,99315.66
2023-04-29T13:32:55.222Z,99321.28
2023-04-29T13:35:24.113Z,99308.78
2023-04-29T13:37:52.443Z,99311.25
2023-04-29T13:40:21.416Z,99300.53
2023-04-29T13:42:53.326Z,99302.19
2023-04-29T13:45:39.539Z,99302.41
2023-04-29T13:48:25.908Z,99299.75
2023-04-29T13:51:34.541Z,99296.50
2023-04-29T13:54:37.368Z,99292.50
2023-04-29T13:59:39.441Z,99287.72
2023-04-29T14:04:21.827Z,99294.25
2023-04-29T14:06:49.281Z,99287.16
2023-04-29T14:09:18.683Z,99275.38
2023-04-29T14:11:46.807Z,99280.28
2023-04-29T14:14:14.467Z,99284.84
2023-04-29T14:16:42.227Z,99281.22
2023-04-29T14:19:09.997Z,99276.47
2023-04-29T14:21:37.461Z,99271.84
2023-04-29T14:24:05.027Z,99268.94
2023-04-29T14:26:32.532Z,99269.00
2023-04-29T14:29:00.543Z,99267.59
2023-04-29T14:31:30.665Z,99264.94
2023-04-29T14:33:59.161Z,99262.97
2023-04-29T14:36:29.211Z,99264.97
2023-04-29T14:38:56.849Z,99261.63
2023-04-29T14:41:24.488Z,99257.44
2023-04-29T14:43:51.942Z,99255.41
2023-04-29T14:46:19.750Z,99256.31
2023-04-29T14:48:47.164Z,99251.00
2023-04-29T14:51:14.759Z,99252.56
2023-04-29T14:53:43.059Z,99246.88
2023-04-29T14:56:10.575Z,99255.56
2023-04-29T14:58:38.910Z,99249.50
2023-04-29T15:01:06.563Z,99243.06
2023-04-29T15:03:34.106Z,99246.88
2023-04-29T15:06:05.162Z,99249.13
2023-04-29T15:08:32.729Z,99248.72
2023-04-29T15:11:00.306Z,99245.69
2023-04-29T15:13:28.819Z,99251.41
2023-04-29T15:15:57.609Z,99248.38
2023-04-29T15:18:27.946Z,99242.63
2023-04-29T15:20:55.436Z,99244.59
2023-04-29T15:23:22.833Z,99247.25
2023-04-29T15:25:50.312Z,99241.97
2023-04-29T15:28:17.736Z,99241.22
2023-04-29T15:30:45.339Z,99240.06
2023-04-29T15:33:12.784Z,99247.69
2023-04-29T15:35:40.478Z,99237.75
2023-04-29T15:38:08.186Z,99235.09
2023-04-29T15:40:35.752Z,99241.19
2023-04-29T15:43:03.265Z,99237.78
2023-04-29T15:45:50.790Z,99233.19
2023-04-29T15:48:18.462Z,99237.38
2023-04-29T15:50:46.276Z,99239.28
2023-04-29T15:53:13.943Z,99236.59
2023-04-29T15:55:42.324Z,99238.50
2023-04-29T15:58:09.878Z,99233.19
2023-04-29T16:00:38.832Z,99233.56
2023-04-29T16:03:06.388Z,99237.34
2023-04-29T16:05:34.572Z,99235.44
2023-04-29T16:08:03.660Z,99231.97
2023-04-29T16:10:32.612Z,99233.53
2023-04-29T16:13:01.373Z,99236.56
2023-04-29T16:15:29.492Z,99232.34
2023-04-29T16:17:57.013Z,99227.41
2023-04-29T16:20:25.865Z,99229.28
2023-04-29T16:22:54.566Z,99230.06
2023-04-29T16:25:22.018Z,99236.16
2023-04-29T16:27:49.530Z,99233.88
2023-04-29T16:30:17.008Z,99236.09
2023-04-29T16:32:44.642Z,99243.69
2023-04-29T16:35:13.296Z,99245.19
2023-04-29T16:37:40.846Z,99239.44
2023-04-29T16:40:09.300Z,99251.25
2023-04-29T16:42:37.848Z,99250.44
2023-04-29T16:45:07.296Z,99247.75
2023-04-29T16:47:35.578Z,99246.91
2023-04-29T16:50:06.978Z,99245.38
2023-04-29T16:52:36.677Z,99247.59
2023-04-29T16:55:04.574Z,99258.94
2023-04-29T16:57:33.890Z,99257.38
2023-04-29T17:00:06.670Z,99258.06
2023-04-29T17:02:35.424Z,99262.63
2023-04-29T17:05:06.482Z,99260.03
2023-04-29T17:07:36.244Z,99266.13
2023-04-29T17:10:06.560Z,99264.69
2023-04-29T17:12:34.213Z,99261.97
2023-04-29T17:15:02.451Z,99260.69
2023-04-29T17:17:30.609Z,99261.03
2023-04-29T17:20:02.612Z,99256.88
2023-04-29T17:22:32.779Z,99257.97
2023-04-29T17:25:03.940Z,99265.63
2023-04-29T17:27:31.713Z,99269.41
2023-04-29T17:30:00.240Z,99262.50
2023-04-29T17:32:30.727Z,99267.00
2023-04-29T17:35:01.291Z,99274.16
2023-04-29T17:37:31.420Z,99273.41
2023-04-29T17:39:59.404Z,99280.56
2023-04-29T17:42:27.237Z,99280.56
2023-04-29T17:44:57.270Z,99292.56
2023-04-29T17:47:26.940Z,99286.41
2023-04-29T17:49:56.321Z,99292.03
2023-04-29T17:52:26.287Z,99290.78
2023-04-29T17:54:55.191Z,99304.06
2023-04-29T17:57:24.535Z,99297.28
2023-04-29T17:59:57.739Z,99296.88
2023-04-29T18:02:26.743Z,99299.34
2023-04-29T18:04:55.228Z,99305.28
2023-04-29T18:07:26.016Z,99308.34
2023-04-29T18:09:58.658Z,99304.13
2023-04-29T18:12:28.618Z,99309.09
2023-04-29T18:14:57.348Z,99311.75
2023-04-29T18:17:27.180Z,99314.75
2023-04-29T18:19:55.453Z,99315.44
2023-04-29T18:22:24.862Z,99312.75
2023-04-29T18:24:57.127Z,99314.88
2023-04-29T18:27:29.829Z,99317.44
2023-04-29T18:29:58.013Z,99318.03
2023-04-29T18:32:25.464Z,99320.28
2023-04-29T18:34:53.907Z,99312.22
2023-04-29T18:37:21.438Z,99324.72
2023-04-29T18:39:48.955Z,99322.72
2023-04-29T18:42:16.533Z,99319.19
2023-04-29T18:44:45.712Z,99325.34
2023-04-29T18:47:15.754Z,99333.22
2023-04-29T18:49:44.051Z,99331.69
2023-04-29T18:52:11.560Z,99332.00
2023-04-29T18:54:41.006Z,99334.84
2023-04-29T18:57:08.895Z,99334.41
2023-04-29T18:59:39.958Z,99338.78
2023-04-29T19:02:08.641Z,99339.84
2023-04-29T19:04:36.323Z,99331.69
2023-04-29T19:07:08.129Z,99331.00
2023-04-29T19:09:36.533Z,99335.06
2023-04-29T19:12:05.865Z,99336.13
2023-04-29T19:14:38.553Z,99332.75
2023-04-29T19:17:09.553Z,99340.19
2023-04-29T19:19:38.159Z,99339.66
2023-04-29T19:22:05.700Z,99345.78
2023-04-29T19:24:35.263Z,99347.63
2023-04-29T19:27:04.133Z,99341.03
2023-04-29T19:29:31.558Z,99348.78
2023-04-29T19:31:59.250Z,99352.28
2023-04-29T19:34:26.888Z,99345.84
2023-04-29T19:36:56.385Z,99351.50
2023-04-29T19:39:23.979Z,99351.13
2023-04-29T19:41:53.295Z,99356.03
2023-04-29T19:44:21.094Z,99352.72
2023-04-29T19:46:54.344Z,99356.31
2023-04-29T19:49:23.735Z,99358.91
2023-04-29T19:51:52.031Z,99346.28
2023-04-29T19:54:22.591Z,99342.53
2023-04-29T19:56:50.089Z,99347.25
2023-04-29T19:59:17.639Z,99349.59
2023-04-29T20:01:45.304Z,99345.97
2023-04-29T20:04:13.000Z,99353.41
2023-04-29T20:06:41.364Z,99356.50
2023-04-29T20:09:09.488Z,99358.13
2023-04-29T20:11:37.169Z,99349.09
2023-04-29T20:14:04.650Z,99346.50
2023-04-29T20:16:32.232Z,99343.06
2023-04-29T20:18:59.679Z,99347.91
2023-04-29T20:21:27.676Z,99338.41
2023-04-29T20:23:57.994Z,99342.53
2023-04-29T20:26:27.308Z,99341.72
2023-04-29T20:28:57.119Z,99342.75
2023-04-29T20:31:27.242Z,99339.06
2023-04-29T20:33:54.828Z,99352.84
2023-04-29T20:36:23.372Z,99347.13
2023-04-29T20:38:50.993Z,99347.69
2023-04-29T20:41:18.428Z,99351.03
2023-04-29T20:43:45.904Z,99349.78
2023-04-29T20:46:14.067Z,99352.63
2023-04-29T20:48:42.276Z,99348.03
2023-04-29T20:51:11.482Z,99347.34
2023-04-29T20:53:39.661Z,99344.97
2023-04-29T20:56:09.050Z,99350.81
2023-04-29T20:58:36.544Z,99352.69
2023-04-29T21:01:04.026Z,99350.94
2023-04-29T21:03:31.553Z,99345.75
2023-04-29T21:05:59.592Z,99351.44
2023-04-29T21:08:27.598Z,99344.69
2023-04-29T21:10:55.138Z,99348.44
2023-04-29T21:13:22.648Z,99340.16
2023-04-29T21:15:50.164Z,99338.97
2023-04-29T21:18:17.787Z,99341.59
2023-04-29T21:20:45.781Z,99338.25
2023-04-29T21:23:13.324Z,99335.72
2023-04-29T21:25:40.936Z,99340.38
2023-04-29T21:28:08.426Z,99330.03
2023-04-29T21:30:36.075Z,99335.66
2023-04-29T21:33:03.756Z,99339.56
2023-04-29T21:35:32.990Z,99347.06
2023-04-29T21:38:00.532Z,99351.44
2023-04-29T21:40:28.204Z,99358.94
2023-04-29T21:42:56.844Z,99348.25
2023-04-29T21:45:25.379Z,99358.75
2023-04-29T21:47:55.543Z,99354.25
2023-04-29T21:50:23.187Z,99355.63
2023-04-29T21:52:50.819Z,99363.41
2023-04-29T21:55:18.792Z,99348.22
2023-04-29T21:57:46.429Z,99350.00
2023-04-29T22:00:28.678Z,99342.38
2023-04-29T22:03:03.346Z,99348.63
2023-04-29T22:05:31.861Z,99342.38
2023-04-29T22:08:03.013Z,99340.50
2023-04-29T22:10:31.236Z,99338.75
2023-04-29T22:13:01.335Z,99342.16
2023-04-29T22:15:29.615Z,99341.78
2023-04-29T22:17:58.158Z,99342.41
2023-04-29T22:20:26.132Z,99343.50
2023-04-29T22:22:54.099Z,99343.34
2023-04-29T22:25:22.047Z,99349.06
2023-04-29T22:27:50.369Z,99336.19
2023-04-29T22:30:18.186Z,99338.31
2023-04-29T22:32:45.825Z,99330.81
2023-04-29T22:35:13.299Z,99330.97
2023-04-29T22:37:41.093Z,99330.72
2023-04-29T22:40:09.736Z,99326.53
2023-04-29T22:42:37.190Z,99325.88
2023-04-29T22:45:05.793Z,99329.28
2023-04-29T22:47:33.262Z,99325.94
2023-04-29T22:50:01.875Z,99327.31
2023-04-29T22:52:29.331Z,99318.69
2023-04-29T22:54:56.798Z,99318.53
2023-04-29T22:57:25.437Z,99310.94
2023-04-29T22:59:57.450Z,99304.56
2023-04-29T23:02:29.106Z,99302.66
2023-04-29T23:04:58.363Z,99309.56
2023-04-29T23:07:26.751Z,99302.84
2023-04-29T23:09:54.523Z,99307.03
2023-04-29T23:12:22.589Z,99308.38
2023-04-29T23:14:51.027Z,99304.53
2023-04-29T23:17:18.476Z,99301.66
2023-04-29T23:19:46.075Z,99308.81
2023-04-29T23:22:13.583Z,99307.78
2023-04-29T23:24:41.064Z,99305.56
2023-04-29T23:27:08.497Z,99306.50
2023-04-29T23:29:36.217Z,99310.88
2023-04-29T23:32:03.845Z,99301.75
2023-04-29T23:34:31.270Z,99297.81
2023-04-29T23:37:01.315Z,99306.94
2023-04-29T23:39:28.942Z,99299.44
2023-04-29T23:41:56.847Z,99299.59
2023-04-29T23:44:25.194Z,99296.63
2023-04-29T23:46:55.661Z,99296.13
2023-04-29T23:49:23.122Z,99292.19
2023-04-29T23:51:50.751Z,99294.81
2023-04-29T23:54:19.443Z,99296.03
2023-04-29T23:56:46.917Z,99298.50
2023-04-29T23:59:14.358Z,99288.69
